createdAt,value
2023-02-01T00:00:42.804Z,100736.69
2023-02-01T00:03:10.420Z,100726.63
2023-02-01T00:05:39.398Z,100739.53
2023-02-01T00:08:07.195Z,100720.69
2023-02-01T00:10:34.795Z,100738.06
2023-02-01T00:13:02.419Z,100722.88
2023-02-01T00:15:30.029Z,100733.25
2023-02-01T00:17:57.739Z,100738.41
2023-02-01T00:20:25.363Z,100744.03
2023-02-01T00:22:54.340Z,100744.72
2023-02-01T00:25:22.000Z,100745.22
2023-02-01T00:27:50.964Z,100737.91
2023-02-01T00:30:19.804Z,100744.56
2023-02-01T00:32:47.691Z,100734.50
2023-02-01T00:35:15.400Z,100736.31
2023-02-01T00:37:42.982Z,100728.72
2023-02-01T00:40:13.272Z,100737.47
2023-02-01T00:42:41.087Z,100724.78
2023-02-01T00:45:09.794Z,100730.59
2023-02-01T00:47:37.457Z,100728.47
2023-02-01T00:50:05.661Z,100728.81
2023-02-01T00:52:33.375Z,100717.25
2023-02-01T00:55:01.411Z,100706.38
2023-02-01T00:57:30.413Z,100733.28
2023-02-01T00:59:58.042Z,100718.75
2023-02-01T01:02:28.089Z,100723.91
2023-02-01T01:04:55.767Z,100733.31
2023-02-01T01:07:23.382Z,100723.25
2023-02-01T01:09:51.027Z,100719.78
2023-02-01T01:12:20.755Z,100716.31
2023-02-01T01:14:50.161Z,100724.06
2023-02-01T01:17:18.593Z,100709.72
2023-02-01T01:19:46.197Z,100706.25
2023-02-01T01:22:13.808Z,100714.00
2023-02-01T01:24:41.752Z,100721.78
2023-02-01T01:27:09.372Z,100713.16
2023-02-01T01:29:37.060Z,100721.78
2023-02-01T01:32:06.125Z,100717.31
2023-02-01T01:34:33.850Z,100712.03
2023-02-01T01:37:01.446Z,100711.22
2023-02-01T01:39:29.115Z,100698.81
2023-02-01T01:41:56.710Z,100710.69
2023-02-01T01:44:57.475Z,100705.25
2023-02-01T01:47:27.393Z,100705.56
2023-02-01T01:49:55.217Z,100705.41
2023-02-01T01:52:23.489Z,100695.00
2023-02-01T01:54:55.151Z,100694.00
2023-02-01T01:57:28.569Z,100681.13
2023-02-01T02:00:08.117Z,100686.41
2023-02-01T02:02:39.338Z,100689.69
2023-02-01T02:05:07.830Z,100693.50
2023-02-01T02:07:39.019Z,100688.53
2023-02-01T02:10:11.567Z,100687.88
2023-02-01T02:12:40.974Z,100677.97
2023-02-01T02:15:11.425Z,100686.06
2023-02-01T02:17:50.503Z,100684.41
2023-02-01T02:20:41.911Z,100681.13
2023-02-01T02:23:49.143Z,100677.31
2023-02-01T02:27:24.051Z,100676.47
2023-02-01T02:30:26.074Z,100668.88
2023-02-01T02:33:30.275Z,100664.41
2023-02-01T02:36:03.638Z,100664.41
2023-02-01T02:38:41.253Z,100662.63
2023-02-01T02:41:36.580Z,100659.97
2023-02-01T02:44:31.956Z,100650.06
2023-02-01T02:47:22.383Z,100649.06
2023-02-01T02:50:11.442Z,100635.03
2023-02-01T02:53:02.773Z,100636.50
2023-02-01T02:55:32.590Z,100640.81
2023-02-01T02:58:18.561Z,100638.50
2023-02-01T03:01:04.018Z,100625.28
2023-02-01T03:03:49.210Z,100627.75
2023-02-01T03:06:19.906Z,100615.56
2023-02-01T03:08:48.234Z,100611.91
2023-02-01T03:11:17.310Z,100598.88
2023-02-01T03:13:48.751Z,100608.09
2023-02-01T03:16:27.074Z,100609.44
2023-02-01T03:19:00.632Z,100609.09
2023-02-01T03:21:34.770Z,100606.31
2023-02-01T03:24:08.675Z,100596.72
2023-02-01T03:26:40.254Z,100594.72
2023-02-01T03:29:19.549Z,100601.69
2023-02-01T03:31:47.257Z,100598.38
2023-02-01T03:34:15.610Z,100588.47
2023-02-01T03:36:50.354Z,100585.66
2023-02-01T03:39:22.891Z,100589.78
2023-02-01T03:41:53.371Z,100589.59
2023-02-01T03:44:25.140Z,100593.72
2023-02-01T03:46:56.266Z,100585.63
2023-02-01T03:49:28.788Z,100582.78
2023-02-01T03:52:00.614Z,100565.94
2023-02-01T03:54:30.570Z,100568.75
2023-02-01T03:57:01.800Z,100568.44
2023-02-01T03:59:29.461Z,100568.56
2023-02-01T04:01:57.125Z,100571.72
2023-02-01T04:04:24.827Z,100562.97
2023-02-01T04:06:52.928Z,100567.44
2023-02-01T04:09:21.925Z,100566.44
2023-02-01T04:11:49.495Z,100556.88
2023-02-01T04:14:17.217Z,100553.22
2023-02-01T04:16:44.841Z,100539.88
2023-02-01T04:19:12.559Z,100553.75
2023-02-01T04:21:40.451Z,100543.69
2023-02-01T04:24:09.530Z,100545.16
2023-02-01T04:26:38.568Z,100546.81
2023-02-01T04:29:06.295Z,100539.22
2023-02-01T04:31:34.730Z,100538.25
2023-02-01T04:34:02.468Z,100526.53
2023-02-01T04:36:30.147Z,100541.03
2023-02-01T04:38:57.911Z,100543.53
2023-02-01T04:41:25.553Z,100535.41
2023-02-01T04:43:54.541Z,100540.06
2023-02-01T04:46:22.278Z,100534.94
2023-02-01T04:48:49.896Z,100518.75
2023-02-01T04:51:19.009Z,100526.19
2023-02-01T04:53:46.931Z,100526.53
2023-02-01T04:56:14.590Z,100534.59
2023-02-01T04:58:42.153Z,100514.13
2023-02-01T05:01:11.207Z,100522.03
2023-02-01T05:03:38.885Z,100519.59
2023-02-01T05:06:06.981Z,100528.50
2023-02-01T05:08:34.906Z,100530.28
2023-02-01T05:11:04.338Z,100538.91
2023-02-01T05:13:49.572Z,100532.78
2023-02-01T05:16:19.029Z,100538.56
2023-02-01T05:18:46.707Z,100545.66
2023-02-01T05:21:14.569Z,100541.22
2023-02-01T05:23:56.132Z,100541.03
2023-02-01T05:26:24.027Z,100540.06
2023-02-01T05:28:51.680Z,100536.22
2023-02-01T05:31:20.814Z,100524.38
2023-02-01T05:33:49.105Z,100519.91
2023-02-01T05:36:16.767Z,100524.50
2023-02-01T05:38:44.532Z,100520.56
2023-02-01T05:41:12.228Z,100518.56
2023-02-01T05:43:39.906Z,100525.66
2023-02-01T05:46:07.533Z,100527.31
2023-02-01T05:48:36.532Z,100521.22
2023-02-01T05:51:04.212Z,100516.25
2023-02-01T05:53:31.826Z,100515.75
2023-02-01T05:55:59.498Z,100514.44
2023-02-01T05:58:27.410Z,100521.53
2023-02-01T06:00:55.036Z,100520.25
2023-02-01T06:03:22.825Z,100526.31
2023-02-01T06:05:51.804Z,100523.53
2023-02-01T06:08:19.522Z,100520.06
2023-02-01T06:10:47.361Z,100512.13
2023-02-01T06:13:15.060Z,100521.88
2023-02-01T06:15:45.052Z,100512.97
2023-02-01T06:18:12.790Z,100513.81
2023-02-01T06:20:40.404Z,100513.94
2023-02-01T06:23:09.329Z,100511.47
2023-02-01T06:25:36.941Z,100510.81
2023-02-01T06:28:06.697Z,100511.81
2023-02-01T06:30:34.321Z,100510.16
2023-02-01T06:33:01.940Z,100519.56
2023-02-01T06:35:29.522Z,100506.19
2023-02-01T06:37:57.634Z,100507.50
2023-02-01T06:40:26.713Z,100517.75
2023-02-01T06:42:54.326Z,100517.41
2023-02-01T06:45:21.959Z,100509.84
2023-02-01T06:47:49.548Z,100513.97
2023-02-01T06:50:17.863Z,100505.06
2023-02-01T06:52:45.484Z,100513.78
2023-02-01T06:55:13.967Z,100514.63
2023-02-01T06:57:43.022Z,100520.56
2023-02-01T07:00:12.068Z,100516.09
2023-02-01T07:02:40.391Z,100526.66
2023-02-01T07:05:08.368Z,100527.00
2023-02-01T07:07:36.009Z,100517.25
2023-02-01T07:10:03.722Z,100528.00
2023-02-01T07:12:31.450Z,100515.13
2023-02-01T07:15:00.462Z,100523.88
2023-02-01T07:17:29.969Z,100516.75
2023-02-01T07:19:57.696Z,100523.19
2023-02-01T07:22:25.259Z,100526.34
2023-02-01T07:24:52.918Z,100533.25
2023-02-01T07:27:20.902Z,100527.19
2023-02-01T07:29:48.539Z,100521.06
2023-02-01T07:32:19.013Z,100530.63
2023-02-01T07:34:46.754Z,100531.31
2023-02-01T07:37:14.392Z,100531.81
2023-02-01T07:39:42.069Z,100532.28
2023-02-01T07:42:09.639Z,100533.94
2023-02-01T07:44:37.416Z,100536.41
2023-02-01T07:47:05.251Z,100524.72
2023-02-01T07:49:34.253Z,100531.47
2023-02-01T07:52:01.872Z,100532.97
2023-02-01T07:54:29.634Z,100536.59
2023-02-01T07:56:57.860Z,100535.59
2023-02-01T07:59:25.455Z,100531.78
2023-02-01T08:01:52.138Z,100527.66
2023-02-01T08:04:19.747Z,100529.16
2023-02-01T08:06:48.658Z,100517.44
2023-02-01T08:09:16.568Z,100529.66
2023-02-01T08:11:44.146Z,100530.00
2023-02-01T08:14:12.108Z,100530.78
2023-02-01T08:16:40.281Z,100535.59
2023-02-01T08:19:08.507Z,100536.25
2023-02-01T08:21:38.307Z,100542.00
2023-02-01T08:24:10.186Z,100536.41
2023-02-01T08:26:37.961Z,100535.84
2023-02-01T08:29:07.788Z,100540.47
2023-02-01T08:31:35.925Z,100528.88
2023-02-01T08:34:05.615Z,100517.59
2023-02-01T08:36:33.718Z,100517.44
2023-02-01T08:39:02.182Z,100517.75
2023-02-01T08:41:32.183Z,100524.75
2023-02-01T08:43:59.970Z,100538.13
2023-02-01T08:46:27.738Z,100526.16
2023-02-01T08:48:55.520Z,100536.34
2023-02-01T08:51:24.611Z,100548.09
2023-02-01T08:53:52.290Z,100539.38
2023-02-01T08:56:21.434Z,100553.66
2023-02-01T08:58:50.387Z,100545.34
2023-02-01T09:01:19.171Z,100548.19
2023-02-01T09:03:47.544Z,100542.75
2023-02-01T09:06:17.095Z,100538.25
2023-02-01T09:08:45.617Z,100537.78
2023-02-01T09:11:15.232Z,100531.91
2023-02-01T09:13:43.550Z,100531.66
2023-02-01T09:16:13.289Z,100528.31
2023-02-01T09:18:50.504Z,100514.09
2023-02-01T09:21:28.727Z,100527.53
2023-02-01T09:23:56.360Z,100528.53
2023-02-01T09:26:31.533Z,100518.41
2023-02-01T09:29:00.394Z,100514.59
2023-02-01T09:31:29.481Z,100516.25
2023-02-01T09:33:57.695Z,100518.41
2023-02-01T09:36:26.005Z,100507.63
2023-02-01T09:38:54.339Z,100506.16
2023-02-01T09:41:33.872Z,100505.53
2023-02-01T09:44:10.263Z,100506.78
2023-02-01T09:46:39.311Z,100509.72
2023-02-01T09:49:11.518Z,100507.06
2023-02-01T09:51:42.328Z,100511.28
2023-02-01T09:54:15.475Z,100508.53
2023-02-01T09:56:51.938Z,100505.59
2023-02-01T09:59:31.719Z,100499.88
2023-02-01T10:02:01.639Z,100497.03
2023-02-01T10:04:29.480Z,100491.50
2023-02-01T10:07:10.411Z,100494.81
2023-02-01T10:09:51.353Z,100493.72
2023-02-01T10:13:08.227Z,100486.88
2023-02-01T10:15:54.058Z,100485.13
2023-02-01T10:18:40.495Z,100481.78
2023-02-01T10:21:17.634Z,100483.34
2023-02-01T10:24:16.046Z,100490.31
2023-02-01T10:26:49.602Z,100471.94
2023-02-01T10:29:21.727Z,100466.50
2023-02-01T10:31:49.496Z,100473.03
2023-02-01T10:34:22.971Z,100460.50
2023-02-01T10:36:56.980Z,100453.91
2023-02-01T10:39:25.578Z,100462.16
2023-02-01T10:41:53.847Z,100459.28
2023-02-01T10:44:25.860Z,100448.78
2023-02-01T10:46:54.403Z,100438.03
2023-02-01T10:49:28.851Z,100442.34
2023-02-01T10:52:02.920Z,100434.59
2023-02-01T10:54:39.216Z,100429.53
2023-02-01T10:57:09.642Z,100424.88
2023-02-01T10:59:38.511Z,100414.28
2023-02-01T11:02:22.025Z,100417.59
2023-02-01T11:04:52.665Z,100432.47
2023-02-01T11:07:26.283Z,100433.22
2023-02-01T11:09:57.321Z,100424.13
2023-02-01T11:12:30.573Z,100430.78
2023-02-01T11:15:05.216Z,100429.69
2023-02-01T11:17:36.028Z,100419.56
2023-02-01T11:20:08.763Z,100428.16
2023-02-01T11:22:36.413Z,100414.78
2023-02-01T11:25:11.529Z,100414.25
2023-02-01T11:27:53.153Z,100422.97
2023-02-01T11:30:33.996Z,100414.53
2023-02-01T11:33:04.054Z,100395.25
2023-02-01T11:35:36.671Z,100410.50
2023-02-01T11:38:14.094Z,100406.00
2023-02-01T11:40:41.826Z,100402.25
2023-02-01T11:43:15.602Z,100426.19
2023-02-01T11:45:43.576Z,100428.84
2023-02-01T11:48:26.381Z,100404.44
2023-02-01T11:51:09.687Z,100423.28
2023-02-01T11:53:57.161Z,100417.38
2023-02-01T11:56:30.617Z,100417.38
2023-02-01T11:59:18.827Z,100412.78
2023-02-01T12:02:05.015Z,100403.38
2023-02-01T12:04:59.717Z,100407.34
2023-02-01T12:07:42.260Z,100405.19
2023-02-01T12:10:26.670Z,100395.22
2023-02-01T12:13:05.803Z,100378.38
2023-02-01T12:15:48.492Z,100387.66
2023-02-01T12:18:37.448Z,100377.81
2023-02-01T12:21:24.065Z,100381.13
2023-02-01T12:24:17.892Z,100389.38
2023-02-01T12:27:08.108Z,100393.94
2023-02-01T12:29:50.040Z,100381.88
2023-02-01T12:32:49.558Z,100384.22
2023-02-01T12:35:46.332Z,100383.50
2023-02-01T12:38:36.776Z,100384.69
2023-02-01T12:41:20.309Z,100392.19
2023-02-01T12:43:53.359Z,100398.09
2023-02-01T12:46:27.934Z,100422.53
2023-02-01T12:49:02.169Z,100430.91
2023-02-01T12:51:33.855Z,100401.59
2023-02-01T12:54:07.667Z,100426.47
2023-02-01T12:56:41.044Z,100437.81
2023-02-01T12:59:18.947Z,100426.47
2023-02-01T13:01:53.181Z,100406.00
2023-02-01T13:04:27.396Z,100393.75
2023-02-01T13:07:03.378Z,100392.22
2023-02-01T13:09:38.538Z,100382.59
2023-02-01T13:12:14.732Z,100385.50
2023-02-01T13:14:47.378Z,100391.56
2023-02-01T13:17:18.558Z,100377.84
2023-02-01T13:19:51.573Z,100391.16
2023-02-01T13:22:26.080Z,100385.47
2023-02-01T13:24:57.145Z,100391.88
2023-02-01T13:27:31.191Z,100390.72
2023-02-01T13:30:02.581Z,100393.00
2023-02-01T13:33:53.157Z,100387.47
2023-02-01T13:36:07.642Z,100384.81
2023-02-01T13:39:07.904Z,100379.84
2023-02-01T13:41:43.703Z,100390.34
2023-02-01T13:44:18.881Z,100386.00
2023-02-01T13:46:48.838Z,100390.25
2023-02-01T13:49:22.483Z,100377.28
2023-02-01T13:51:53.548Z,100395.94
2023-02-01T13:54:30.944Z,100396.28
2023-02-01T13:57:01.146Z,100389.06
2023-02-01T13:59:51.722Z,100396.41
2023-02-01T14:03:05.175Z,100389.41
2023-02-01T14:05:59.131Z,100403.28
2023-02-01T14:08:41.021Z,100402.25
2023-02-01T14:11:08.784Z,100401.59
2023-02-01T14:13:38.504Z,100399.25
2023-02-01T14:16:19.937Z,100395.56
2023-02-01T14:19:02.176Z,100410.53
2023-02-01T14:21:33.088Z,100402.13
2023-02-01T14:24:03.463Z,100396.84
2023-02-01T14:26:45.989Z,100425.13
2023-02-01T14:29:28.937Z,100425.66
2023-02-01T14:32:06.704Z,100423.06
2023-02-01T14:34:44.312Z,100418.94
2023-02-01T14:37:25.366Z,100421.78
2023-02-01T14:40:01.650Z,100421.09
2023-02-01T14:42:32.550Z,100422.75
2023-02-01T14:45:35.973Z,100417.69
2023-02-01T14:48:45.727Z,100429.72
2023-02-01T14:51:16.747Z,100424.88
2023-02-01T14:53:45.383Z,100433.28
2023-02-01T14:56:17.938Z,100443.88
2023-02-01T14:58:49.665Z,100439.47
2023-02-01T15:01:26.147Z,100438.09
2023-02-01T15:04:00.701Z,100446.38
2023-02-01T15:06:35.925Z,100437.72
2023-02-01T15:09:09.518Z,100451.59
2023-02-01T15:12:03.473Z,100445.31
2023-02-01T15:14:32.834Z,100445.00
2023-02-01T15:17:00.929Z,100448.81
2023-02-01T15:19:31.628Z,100459.53
2023-02-01T15:22:00.922Z,100451.25
2023-02-01T15:24:30.286Z,100452.94
2023-02-01T15:27:05.555Z,100445.81
2023-02-01T15:29:34.973Z,100445.34
2023-02-01T15:32:02.924Z,100446.50
2023-02-01T15:34:50.784Z,100445.00
2023-02-01T15:37:19.584Z,100447.84
2023-02-01T15:40:08.907Z,100458.59
2023-02-01T15:42:37.282Z,100449.16
2023-02-01T15:45:05.756Z,100447.53
2023-02-01T15:47:33.993Z,100446.88
2023-02-01T15:50:03.784Z,100438.28
2023-02-01T15:52:38.767Z,100460.84
2023-02-01T15:55:09.930Z,100473.75
2023-02-01T15:57:43.196Z,100498.41
2023-02-01T16:00:24.591Z,100490.00
2023-02-01T16:02:58.129Z,100483.41
2023-02-01T16:05:34.239Z,100495.97
2023-02-01T16:08:05.518Z,100496.78
2023-02-01T16:10:40.044Z,100500.41
2023-02-01T16:13:08.055Z,100501.09
2023-02-01T16:15:35.677Z,100488.53
2023-02-01T16:18:03.399Z,100493.31
2023-02-01T16:20:34.063Z,100492.47
2023-02-01T16:23:01.737Z,100483.69
2023-02-01T16:25:29.536Z,100487.19
2023-02-01T16:27:57.805Z,100496.59
2023-02-01T16:30:25.721Z,100480.19
2023-02-01T16:32:55.761Z,100477.72
2023-02-01T16:35:26.373Z,100474.06
2023-02-01T16:37:56.398Z,100485.63
2023-02-01T16:40:24.163Z,100481.34
2023-02-01T16:42:53.524Z,100484.81
2023-02-01T16:45:22.548Z,100481.34
2023-02-01T16:47:53.142Z,100479.69
2023-02-01T16:50:24.332Z,100482.16
2023-02-01T16:52:52.444Z,100492.41
2023-02-01T16:55:23.604Z,100502.00
2023-02-01T16:57:51.564Z,100501.00
2023-02-01T17:00:25.502Z,100485.66
2023-02-01T17:02:54.656Z,100504.69
2023-02-01T17:05:23.098Z,100507.00
2023-02-01T17:07:51.258Z,100514.09
2023-02-01T17:10:38.870Z,100506.16
2023-02-01T17:13:06.847Z,100499.22
2023-02-01T17:15:37.215Z,100503.53
2023-02-01T17:18:05.426Z,100482.06
2023-02-01T17:20:34.051Z,100494.78
2023-02-01T17:23:02.015Z,100482.09
2023-02-01T17:25:32.803Z,100485.19
2023-02-01T17:28:00.904Z,100487.69
2023-02-01T17:30:28.857Z,100478.41
2023-02-01T17:32:57.002Z,100479.25
2023-02-01T17:35:29.754Z,100478.75
2023-02-01T17:37:57.806Z,100481.41
2023-02-01T17:40:25.537Z,100479.25
2023-02-01T17:42:57.783Z,100494.59
2023-02-01T17:45:36.304Z,100483.84
2023-02-01T17:48:04.813Z,100503.16
2023-02-01T17:50:34.906Z,100504.00
2023-02-01T17:53:03.180Z,100505.81
2023-02-01T17:55:30.927Z,100500.84
2023-02-01T17:58:00.157Z,100493.94
2023-02-01T18:00:28.168Z,100494.44
2023-02-01T18:02:57.072Z,100494.13
2023-02-01T18:05:28.062Z,100505.88
2023-02-01T18:07:55.877Z,100520.75
2023-02-01T18:10:23.644Z,100502.72
2023-02-01T18:12:51.563Z,100502.72
2023-02-01T18:15:22.557Z,100511.31
2023-02-01T18:17:50.645Z,100511.16
2023-02-01T18:20:20.216Z,100498.28
2023-02-01T18:22:49.574Z,100495.81
2023-02-01T18:25:20.612Z,100490.69
2023-02-01T18:27:49.027Z,100484.09
2023-02-01T18:30:17.433Z,100482.75
2023-02-01T18:32:48.450Z,100484.25
2023-02-01T18:35:24.810Z,100481.09
2023-02-01T18:37:55.220Z,100475.16
2023-02-01T18:40:24.923Z,100472.84
2023-02-01T18:42:52.765Z,100471.03
2023-02-01T18:45:28.101Z,100490.69
2023-02-01T18:47:57.127Z,100479.97
2023-02-01T18:50:25.851Z,100477.66
2023-02-01T18:52:55.288Z,100462.44
2023-02-01T18:55:23.641Z,100469.53
2023-02-01T18:57:51.896Z,100461.78
2023-02-01T19:00:20.891Z,100459.66
2023-02-01T19:02:49.793Z,100461.47
2023-02-01T19:05:19.444Z,100471.84
2023-02-01T19:07:47.732Z,100468.41
2023-02-01T19:10:17.816Z,100464.44
2023-02-01T19:12:45.892Z,100471.19
2023-02-01T19:15:15.708Z,100450.56
2023-02-01T19:17:45.146Z,100446.09
2023-02-01T19:20:14.899Z,100448.75
2023-02-01T19:22:44.428Z,100442.47
2023-02-01T19:25:16.370Z,100467.38
2023-02-01T19:27:44.031Z,100465.25
2023-02-01T19:30:14.070Z,100455.16
2023-02-01T19:32:42.349Z,100458.47
2023-02-01T19:35:13.159Z,100451.03
2023-02-01T19:37:43.994Z,100450.88
2023-02-01T19:40:14.784Z,100437.34
2023-02-01T19:42:42.716Z,100449.38
2023-02-01T19:45:11.790Z,100448.06
2023-02-01T19:47:39.745Z,100473.16
2023-02-01T19:50:08.858Z,100461.59
2023-02-01T19:52:36.869Z,100444.41
2023-02-01T19:55:07.419Z,100449.31
2023-02-01T19:57:36.349Z,100456.59
2023-02-01T20:00:05.375Z,100474.09
2023-02-01T20:02:32.227Z,100455.09
2023-02-01T20:05:00.080Z,100465.16
2023-02-01T20:07:27.686Z,100472.25
2023-02-01T20:09:55.330Z,100456.25
2023-02-01T20:12:24.639Z,100453.91
2023-02-01T20:14:52.362Z,100469.28
2023-02-01T20:17:20.007Z,100457.53
2023-02-01T20:19:47.647Z,100464.44
2023-02-01T20:22:15.264Z,100466.28
2023-02-01T20:24:43.160Z,100483.81
2023-02-01T20:27:13.010Z,100484.47
2023-02-01T20:29:42.289Z,100489.75
2023-02-01T20:32:10.728Z,100477.84
2023-02-01T20:34:38.384Z,100494.22
2023-02-01T20:37:06.021Z,100512.88
2023-02-01T20:39:33.787Z,100502.50
2023-02-01T20:42:01.374Z,100509.28
2023-02-01T20:44:28.955Z,100512.41
2023-02-01T20:46:58.932Z,100520.00
2023-02-01T20:49:26.619Z,100514.91
2023-02-01T20:51:54.203Z,100516.38
2023-02-01T20:54:21.882Z,100539.50
2023-02-01T20:56:49.844Z,100535.22
2023-02-01T20:59:17.791Z,100525.63
2023-02-01T21:01:52.866Z,100513.22
2023-02-01T21:04:27.215Z,100539.03
2023-02-01T21:06:55.905Z,100531.41
2023-02-01T21:09:24.635Z,100536.38
2023-02-01T21:11:52.385Z,100544.13
2023-02-01T21:14:21.178Z,100550.09
2023-02-01T21:16:49.235Z,100541.16
2023-02-01T21:19:19.389Z,100538.16
2023-02-01T21:21:48.314Z,100551.72
2023-02-01T21:24:15.928Z,100563.47
2023-02-01T21:26:43.667Z,100588.44
2023-02-01T21:29:13.038Z,100587.09
2023-02-01T21:31:41.700Z,100563.13
2023-02-01T21:34:09.685Z,100592.41
2023-02-01T21:36:37.499Z,100576.19
2023-02-01T21:39:08.657Z,100594.38
2023-02-01T21:41:54.867Z,100582.63
2023-02-01T21:44:23.023Z,100603.97
2023-02-01T21:46:51.097Z,100611.06
2023-02-01T21:49:18.874Z,100566.59
2023-02-01T21:51:46.536Z,100615.88
2023-02-01T21:54:15.469Z,100619.50
2023-02-01T21:56:43.416Z,100632.41
2023-02-01T21:59:12.445Z,100630.91
2023-02-01T22:01:41.025Z,100643.66
2023-02-01T22:04:10.127Z,100639.34
2023-02-01T22:06:39.482Z,100649.25
2023-02-01T22:09:08.180Z,100654.88
2023-02-01T22:11:37.122Z,100659.38
2023-02-01T22:14:04.904Z,100681.31
2023-02-01T22:16:32.531Z,100676.22
2023-02-01T22:19:00.178Z,100692.91
2023-02-01T22:21:28.261Z,100696.53
2023-02-01T22:23:59.000Z,100698.34
2023-02-01T22:26:27.621Z,100699.19
2023-02-01T22:28:56.799Z,100703.66
2023-02-01T22:31:24.918Z,100705.47
2023-02-01T22:33:52.617Z,100722.47
2023-02-01T22:36:20.688Z,100735.84
2023-02-01T22:38:48.975Z,100731.06
2023-02-01T22:41:16.593Z,100756.81
2023-02-01T22:43:44.905Z,100748.56
2023-02-01T22:46:16.220Z,100750.22
2023-02-01T22:48:45.843Z,100752.34
2023-02-01T22:51:16.522Z,100750.38
2023-02-01T22:53:44.412Z,100766.91
2023-02-01T22:56:13.711Z,100765.75
2023-02-01T22:58:41.748Z,100757.00
2023-02-01T23:01:10.113Z,100729.06
2023-02-01T23:03:40.059Z,100772.22
2023-02-01T23:06:09.241Z,100776.66
2023-02-01T23:08:39.285Z,100776.66
2023-02-01T23:11:09.137Z,100773.16
2023-02-01T23:13:38.928Z,100800.59
2023-02-01T23:16:10.022Z,100801.28
2023-02-01T23:18:39.628Z,100786.53
2023-02-01T23:21:09.169Z,100809.00
2023-02-01T23:23:36.867Z,100818.41
2023-02-01T23:26:05.613Z,100838.19
2023-02-01T23:28:33.254Z,100824.16
2023-02-01T23:31:01.208Z,100812.91
2023-02-01T23:33:29.181Z,100824.47
2023-02-01T23:36:00.122Z,100822.16
2023-02-01T23:38:28.681Z,100835.84
2023-02-01T23:40:59.335Z,100828.38
2023-02-01T23:43:44.806Z,100844.09
2023-02-01T23:46:15.626Z,100848.03
2023-02-01T23:48:43.713Z,100847.66
2023-02-01T23:51:13.318Z,100862.69
2023-02-01T23:53:41.046Z,100854.59
2023-02-01T23:56:09.202Z,100869.94
2023-02-01T23:58:36.831Z,100881.63
